sensor_id;sensor_type;location;lat;lon;timestamp;temperature;humidity
8888;DHT22;4480;52.370;9.748;2022-10-26T00:00:32;9.30;99.90
8888;DHT22;4480;52.370;9.748;2022-10-26T00:03:00;9.30;99.90
8888;DHT22;4480;52.370;9.748;2022-10-26T00:05:27;9.30;99.90
8888;DHT22;4480;52.370;9.748;2022-10-26T00:07:54;9.30;99.90
8888;DHT22;4480;52.370;9.748;2022-10-26T00:10:20;9.30;99.90
8888;DHT22;4480;52.370;9.748;2022-10-26T00:12:48;9.30;99.90
8888;DHT22;4480;52.370;9.748;2022-10-26T00:15:15;9.30;99.90
8888;DHT22;4480;52.370;9.748;2022-10-26T00:17:43;9.30;99.90
8888;DHT22;4480;52.370;9.748;2022-10-26T00:20:11;9.30;99.90
8888;DHT22;4480;52.370;9.748;2022-10-26T00:22:37;9.30;99.90
8888;DHT22;4480;52.370;9.748;2022-10-26T00:25:05;9.30;99.90
8888;DHT22;4480;52.370;9.748;2022-10-26T00:27:32;9.30;99.90
8888;DHT22;4480;52.370;9.748;2022-10-26T00:29:59;9.30;99.90
8888;DHT22;4480;52.370;9.748;2022-10-26T00:32:26;9.30;99.90
8888;DHT22;4480;52.370;9.748;2022-10-26T00:34:53;9.30;99.90
8888;DHT22;4480;52.370;9.748;2022-10-26T00:37:21;9.30;99.90
8888;DHT22;4480;52.370;9.748;2022-10-26T00:39:48;9.20;99.90
8888;DHT22;4480;52.370;9.748;2022-10-26T00:42:19;9.20;99.90
8888;DHT22;4480;52.370;9.748;2022-10-26T00:44:57;9.20;99.90
8888;DHT22;4480;52.370;9.748;2022-10-26T00:47:33;9.20;99.90
8888;DHT22;4480;52.370;9.748;2022-10-26T00:50:07;9.20;99.90
8888;DHT22;4480;52.370;9.748;2022-10-26T00:52:36;9.20;99.90
8888;DHT22;4480;52.370;9.748;2022-10-26T00:55:04;9.20;99.90
8888;DHT22;4480;52.370;9.748;2022-10-26T00:57:31;9.20;99.90
8888;DHT22;4480;52.370;9.748;2022-10-26T00:59:59;9.10;99.90
8888;DHT22;4480;52.370;9.748;2022-10-26T01:02:26;9.10;99.90
8888;DHT22;4480;52.370;9.748;2022-10-26T01:04:53;9.10;99.90
8888;DHT22;4480;52.370;9.748;2022-10-26T01:07:21;9.10;99.90
8888;DHT22;4480;52.370;9.748;2022-10-26T01:09:50;9.10;99.90
8888;DHT22;4480;52.370;9.748;2022-10-26T01:12:16;9.10;99.90
8888;DHT22;4480;52.370;9.748;2022-10-26T01:14:43;9.00;99.90
8888;DHT22;4480;52.370;9.748;2022-10-26T01:17:24;9.00;99.90
8888;DHT22;4480;52.370;9.748;2022-10-26T01:20:20;9.00;99.90
8888;DHT22;4480;52.370;9.748;2022-10-26T01:22:58;9.00;99.90
8888;DHT22;4480;52.370;9.748;2022-10-26T01:25:39;9.00;99.90
8888;DHT22;4480;52.370;9.748;2022-10-26T01:28:12;9.00;99.90
8888;DHT22;4480;52.370;9.748;2022-10-26T01:30:46;9.00;99.90
8888;DHT22;4480;52.370;9.748;2022-10-26T01:33:22;9.00;99.90
8888;DHT22;4480;52.370;9.748;2022-10-26T01:36:04;8.90;99.90
8888;DHT22;4480;52.370;9.748;2022-10-26T01:38:41;8.90;99.90
8888;DHT22;4480;52.370;9.748;2022-10-26T01:41:11;8.90;99.90
8888;DHT22;4480;52.370;9.748;2022-10-26T01:43:41;8.90;99.90
8888;DHT22;4480;52.370;9.748;2022-10-26T01:46:10;8.90;99.90
8888;DHT22;4480;52.370;9.748;2022-10-26T01:48:39;8.90;99.90
8888;DHT22;4480;52.370;9.748;2022-10-26T01:51:08;8.90;99.90
8888;DHT22;4480;52.370;9.748;2022-10-26T01:53:42;8.80;99.90
8888;DHT22;4480;52.370;9.748;2022-10-26T01:56:12;8.80;99.90
8888;DHT22;4480;52.370;9.748;2022-10-26T02:02:25;8.90;99.90
8888;DHT22;4480;52.370;9.748;2022-10-26T02:05:11;8.90;99.90
8888;DHT22;4480;52.370;9.748;2022-10-26T02:07:51;8.90;99.90
8888;DHT22;4480;52.370;9.748;2022-10-26T02:10:29;8.90;99.90
8888;DHT22;4480;52.370;9.748;2022-10-26T02:13:02;8.90;99.90
8888;DHT22;4480;52.370;9.748;2022-10-26T02:15:40;8.90;99.90
8888;DHT22;4480;52.370;9.748;2022-10-26T02:18:18;8.90;99.90
8888;DHT22;4480;52.370;9.748;2022-10-26T02:20:50;8.90;99.90
8888;DHT22;4480;52.370;9.748;2022-10-26T02:23:21;8.90;99.90
8888;DHT22;4480;52.370;9.748;2022-10-26T02:25:53;8.90;99.90
8888;DHT22;4480;52.370;9.748;2022-10-26T02:28:24;8.90;99.90
8888;DHT22;4480;52.370;9.748;2022-10-26T02:30:55;8.90;99.90
8888;DHT22;4480;52.370;9.748;2022-10-26T02:33:27;8.90;99.90
8888;DHT22;4480;52.370;9.748;2022-10-26T02:35:56;9.00;99.90
8888;DHT22;4480;52.370;9.748;2022-10-26T02:38:25;8.90;99.90
8888;DHT22;4480;52.370;9.748;2022-10-26T02:40:55;9.00;99.90
8888;DHT22;4480;52.370;9.748;2022-10-26T02:43:22;9.00;99.90
8888;DHT22;4480;52.370;9.748;2022-10-26T02:45:52;9.00;99.90
8888;DHT22;4480;52.370;9.748;2022-10-26T02:48:20;9.00;99.90
8888;DHT22;4480;52.370;9.748;2022-10-26T02:50:55;9.00;99.90
8888;DHT22;4480;52.370;9.748;2022-10-26T02:53:26;9.00;99.90
8888;DHT22;4480;52.370;9.748;2022-10-26T02:55:55;9.00;99.90
8888;DHT22;4480;52.370;9.748;2022-10-26T02:58:26;9.00;99.90
8888;DHT22;4480;52.370;9.748;2022-10-26T03:00:54;9.10;99.90
8888;DHT22;4480;52.370;9.748;2022-10-26T03:03:21;9.00;99.90
8888;DHT22;4480;52.370;9.748;2022-10-26T03:05:49;9.10;99.90
8888;DHT22;4480;52.370;9.748;2022-10-26T03:08:16;9.10;99.90
8888;DHT22;4480;52.370;9.748;2022-10-26T03:10:44;9.10;99.90
8888;DHT22;4480;52.370;9.748;2022-10-26T03:13:12;9.20;99.90
8888;DHT22;4480;52.370;9.748;2022-10-26T03:15:39;9.20;99.90
8888;DHT22;4480;52.370;9.748;2022-10-26T03:18:06;9.20;99.90
8888;DHT22;4480;52.370;9.748;2022-10-26T03:20:34;9.20;99.90
8888;DHT22;4480;52.370;9.748;2022-10-26T03:23:02;9.20;99.90
8888;DHT22;4480;52.370;9.748;2022-10-26T03:25:28;9.20;99.90
8888;DHT22;4480;52.370;9.748;2022-10-26T03:27:56;9.20;99.90
8888;DHT22;4480;52.370;9.748;2022-10-26T03:30:23;9.20;99.90
8888;DHT22;4480;52.370;9.748;2022-10-26T03:32:50;9.20;99.90
8888;DHT22;4480;52.370;9.748;2022-10-26T03:35:16;9.10;99.90
8888;DHT22;4480;52.370;9.748;2022-10-26T03:37:43;9.10;99.90
8888;DHT22;4480;52.370;9.748;2022-10-26T03:40:12;9.10;99.90
8888;DHT22;4480;52.370;9.748;2022-10-26T03:42:38;9.10;99.90
8888;DHT22;4480;52.370;9.748;2022-10-26T03:45:06;9.10;99.90
8888;DHT22;4480;52.370;9.748;2022-10-26T03:47:33;9.10;99.90
8888;DHT22;4480;52.370;9.748;2022-10-26T03:50:00;9.10;99.90
8888;DHT22;4480;52.370;9.748;2022-10-26T03:52:27;9.10;99.90
8888;DHT22;4480;52.370;9.748;2022-10-26T03:54:53;9.10;99.90
8888;DHT22;4480;52.370;9.748;2022-10-26T03:57:21;9.10;99.90
8888;DHT22;4480;52.370;9.748;2022-10-26T03:59:48;9.10;99.90
8888;DHT22;4480;52.370;9.748;2022-10-26T04:02:15;9.10;99.90
8888;DHT22;4480;52.370;9.748;2022-10-26T04:04:41;9.10;99.90
8888;DHT22;4480;52.370;9.748;2022-10-26T04:10:25;9.10;99.90
8888;DHT22;4480;52.370;9.748;2022-10-26T04:12:53;9.20;99.90
8888;DHT22;4480;52.370;9.748;2022-10-26T04:15:20;9.20;99.90
8888;DHT22;4480;52.370;9.748;2022-10-26T04:17:47;9.20;99.90
8888;DHT22;4480;52.370;9.748;2022-10-26T04:20:14;9.30;99.90
8888;DHT22;4480;52.370;9.748;2022-10-26T04:22:41;9.30;99.90
8888;DHT22;4480;52.370;9.748;2022-10-26T04:25:08;9.30;99.90
8888;DHT22;4480;52.370;9.748;2022-10-26T04:27:38;9.30;99.90
8888;DHT22;4480;52.370;9.748;2022-10-26T04:30:05;9.30;99.90
8888;DHT22;4480;52.370;9.748;2022-10-26T04:32:34;9.30;99.90
8888;DHT22;4480;52.370;9.748;2022-10-26T04:35:01;9.40;99.90
8888;DHT22;4480;52.370;9.748;2022-10-26T04:37:27;9.40;99.90
8888;DHT22;4480;52.370;9.748;2022-10-26T04:39:54;9.40;99.90
8888;DHT22;4480;52.370;9.748;2022-10-26T04:42:21;9.40;99.90
8888;DHT22;4480;52.370;9.748;2022-10-26T04:44:49;9.40;99.90
8888;DHT22;4480;52.370;9.748;2022-10-26T04:47:16;9.40;99.90
8888;DHT22;4480;52.370;9.748;2022-10-26T04:49:42;9.40;99.90
8888;DHT22;4480;52.370;9.748;2022-10-26T04:52:09;9.30;99.90
8888;DHT22;4480;52.370;9.748;2022-10-26T04:54:36;9.30;99.90
8888;DHT22;4480;52.370;9.748;2022-10-26T04:57:03;9.30;99.90
8888;DHT22;4480;52.370;9.748;2022-10-26T04:59:29;9.20;99.90
8888;DHT22;4480;52.370;9.748;2022-10-26T05:01:57;9.30;99.90
8888;DHT22;4480;52.370;9.748;2022-10-26T05:04:24;9.20;99.90
8888;DHT22;4480;52.370;9.748;2022-10-26T05:06:51;9.30;99.90
8888;DHT22;4480;52.370;9.748;2022-10-26T05:09:18;9.20;99.90
8888;DHT22;4480;52.370;9.748;2022-10-26T05:11:45;9.20;99.90
8888;DHT22;4480;52.370;9.748;2022-10-26T05:14:12;9.20;99.90
8888;DHT22;4480;52.370;9.748;2022-10-26T05:16:38;9.20;99.90
8888;DHT22;4480;52.370;9.748;2022-10-26T05:19:06;9.20;99.90
8888;DHT22;4480;52.370;9.748;2022-10-26T05:21:33;9.20;99.90
8888;DHT22;4480;52.370;9.748;2022-10-26T05:24:00;9.20;99.90
8888;DHT22;4480;52.370;9.748;2022-10-26T05:26:27;9.20;99.90
8888;DHT22;4480;52.370;9.748;2022-10-26T05:28:53;9.20;99.90
8888;DHT22;4480;52.370;9.748;2022-10-26T05:31:20;9.20;99.90
8888;DHT22;4480;52.370;9.748;2022-10-26T05:33:48;9.20;99.90
8888;DHT22;4480;52.370;9.748;2022-10-26T05:36:17;9.10;99.90
8888;DHT22;4480;52.370;9.748;2022-10-26T05:38:43;9.10;99.90
8888;DHT22;4480;52.370;9.748;2022-10-26T05:41:10;9.10;99.90
8888;DHT22;4480;52.370;9.748;2022-10-26T05:43:37;9.10;99.90
8888;DHT22;4480;52.370;9.748;2022-10-26T05:46:04;9.10;99.90
8888;DHT22;4480;52.370;9.748;2022-10-26T05:48:31;9.10;99.90
8888;DHT22;4480;52.370;9.748;2022-10-26T05:50:58;9.00;99.90
8888;DHT22;4480;52.370;9.748;2022-10-26T05:53:27;9.10;99.90
8888;DHT22;4480;52.370;9.748;2022-10-26T05:55:54;9.10;99.90
8888;DHT22;4480;52.370;9.748;2022-10-26T05:58:22;9.10;99.90
8888;DHT22;4480;52.370;9.748;2022-10-26T06:00:59;9.10;99.90
8888;DHT22;4480;52.370;9.748;2022-10-26T06:03:35;9.10;99.90
8888;DHT22;4480;52.370;9.748;2022-10-26T06:06:06;9.10;99.90
8888;DHT22;4480;52.370;9.748;2022-10-26T06:08:36;9.10;99.90
8888;DHT22;4480;52.370;9.748;2022-10-26T06:11:03;9.20;99.90
8888;DHT22;4480;52.370;9.748;2022-10-26T06:13:32;9.20;99.90
8888;DHT22;4480;52.370;9.748;2022-10-26T06:16:25;9.20;99.90
8888;DHT22;4480;52.370;9.748;2022-10-26T06:19:02;9.20;99.90
8888;DHT22;4480;52.370;9.748;2022-10-26T06:21:47;9.30;99.90
8888;DHT22;4480;52.370;9.748;2022-10-26T06:24:23;9.30;99.90
8888;DHT22;4480;52.370;9.748;2022-10-26T06:26:56;9.40;99.90
8888;DHT22;4480;52.370;9.748;2022-10-26T06:29:34;9.40;99.90
8888;DHT22;4480;52.370;9.748;2022-10-26T06:32:03;9.50;99.90
8888;DHT22;4480;52.370;9.748;2022-10-26T06:34:33;9.50;99.90
8888;DHT22;4480;52.370;9.748;2022-10-26T06:37:01;9.50;99.90
8888;DHT22;4480;52.370;9.748;2022-10-26T06:39:35;9.50;99.90
8888;DHT22;4480;52.370;9.748;2022-10-26T06:42:04;9.50;99.90
8888;DHT22;4480;52.370;9.748;2022-10-26T06:44:32;9.60;99.90
8888;DHT22;4480;52.370;9.748;2022-10-26T06:47:05;9.60;99.90
8888;DHT22;4480;52.370;9.748;2022-10-26T06:49:35;9.70;99.90
8888;DHT22;4480;52.370;9.748;2022-10-26T06:52:09;9.80;99.90
8888;DHT22;4480;52.370;9.748;2022-10-26T06:54:46;9.90;99.90
8888;DHT22;4480;52.370;9.748;2022-10-26T06:57:16;10.00;99.90
8888;DHT22;4480;52.370;9.748;2022-10-26T06:59:47;10.10;99.90
8888;DHT22;4480;52.370;9.748;2022-10-26T07:02:14;10.20;99.90
8888;DHT22;4480;52.370;9.748;2022-10-26T07:04:42;10.30;99.90
8888;DHT22;4480;52.370;9.748;2022-10-26T07:07:11;10.40;99.90
8888;DHT22;4480;52.370;9.748;2022-10-26T07:09:39;10.50;99.90
8888;DHT22;4480;52.370;9.748;2022-10-26T07:12:07;10.60;99.90
8888;DHT22;4480;52.370;9.748;2022-10-26T07:14:34;10.80;99.90
8888;DHT22;4480;52.370;9.748;2022-10-26T07:17:01;10.90;99.90
8888;DHT22;4480;52.370;9.748;2022-10-26T07:19:28;11.00;99.90
8888;DHT22;4480;52.370;9.748;2022-10-26T07:21:55;11.10;99.90
8888;DHT22;4480;52.370;9.748;2022-10-26T07:24:23;11.20;99.90
8888;DHT22;4480;52.370;9.748;2022-10-26T07:26:52;11.20;99.90
8888;DHT22;4480;52.370;9.748;2022-10-26T07:29:21;11.30;99.90
8888;DHT22;4480;52.370;9.748;2022-10-26T17:43:28;11.30;99.90
8888;DHT22;4480;52.370;9.748;2022-10-26T17:45:57;14.10;99.90
8888;DHT22;4480;52.370;9.748;2022-10-26T17:48:24;14.00;99.90
8888;DHT22;4480;52.370;9.748;2022-10-26T17:50:51;14.00;99.90
8888;DHT22;4480;52.370;9.748;2022-10-26T17:53:19;14.00;99.90
8888;DHT22;4480;52.370;9.748;2022-10-26T17:55:46;13.90;99.90
8888;DHT22;4480;52.370;9.748;2022-10-26T17:58:13;13.90;99.90
8888;DHT22;4480;52.370;9.748;2022-10-26T18:00:39;13.90;99.90
8888;DHT22;4480;52.370;9.748;2022-10-26T18:03:06;13.80;99.90
8888;DHT22;4480;52.370;9.748;2022-10-26T18:05:33;13.80;99.90
8888;DHT22;4480;52.370;9.748;2022-10-26T18:08:00;13.80;99.90
8888;DHT22;4480;52.370;9.748;2022-10-26T18:10:28;13.70;99.90
8888;DHT22;4480;52.370;9.748;2022-10-26T18:12:55;13.70;99.90
8888;DHT22;4480;52.370;9.748;2022-10-26T18:15:21;13.70;99.90
8888;DHT22;4480;52.370;9.748;2022-10-26T18:17:50;13.70;99.90
8888;DHT22;4480;52.370;9.748;2022-10-26T18:20:16;13.60;99.90
8888;DHT22;4480;52.370;9.748;2022-10-26T18:22:45;13.60;99.90
8888;DHT22;4480;52.370;9.748;2022-10-26T18:25:11;13.60;99.90
8888;DHT22;4480;52.370;9.748;2022-10-26T18:27:39;13.50;99.90
8888;DHT22;4480;52.370;9.748;2022-10-26T18:30:07;13.50;99.90
8888;DHT22;4480;52.370;9.748;2022-10-26T18:32:34;13.50;99.90
8888;DHT22;4480;52.370;9.748;2022-10-26T18:35:01;13.40;99.90
8888;DHT22;4480;52.370;9.748;2022-10-26T18:37:27;13.40;99.90
8888;DHT22;4480;52.370;9.748;2022-10-26T18:39:54;13.40;99.90
8888;DHT22;4480;52.370;9.748;2022-10-26T18:42:21;13.40;99.90
8888;DHT22;4480;52.370;9.748;2022-10-26T18:44:49;13.30;99.90
8888;DHT22;4480;52.370;9.748;2022-10-26T18:47:16;13.30;99.90
8888;DHT22;4480;52.370;9.748;2022-10-26T18:49:43;13.30;99.90
8888;DHT22;4480;52.370;9.748;2022-10-26T18:52:09;13.30;99.90
8888;DHT22;4480;52.370;9.748;2022-10-26T18:54:36;13.20;99.90
8888;DHT22;4480;52.370;9.748;2022-10-26T18:57:03;13.20;99.90
8888;DHT22;4480;52.370;9.748;2022-10-26T18:59:30;13.20;99.90
8888;DHT22;4480;52.370;9.748;2022-10-26T19:01:58;13.10;99.90
8888;DHT22;4480;52.370;9.748;2022-10-26T19:04:25;13.10;99.90
8888;DHT22;4480;52.370;9.748;2022-10-26T19:06:51;13.10;99.90
8888;DHT22;4480;52.370;9.748;2022-10-26T19:09:18;13.10;99.90
8888;DHT22;4480;52.370;9.748;2022-10-26T19:11:45;13.00;99.90
8888;DHT22;4480;52.370;9.748;2022-10-26T19:14:12;13.00;99.90
8888;DHT22;4480;52.370;9.748;2022-10-26T19:16:39;13.00;99.90
8888;DHT22;4480;52.370;9.748;2022-10-26T19:19:07;13.00;99.90
8888;DHT22;4480;52.370;9.748;2022-10-26T19:21:35;13.00;99.90
8888;DHT22;4480;52.370;9.748;2022-10-26T19:24:02;13.00;99.90
8888;DHT22;4480;52.370;9.748;2022-10-26T19:26:31;13.00;99.90
8888;DHT22;4480;52.370;9.748;2022-10-26T19:28:59;13.00;99.90
8888;DHT22;4480;52.370;9.748;2022-10-26T19:31:28;13.00;99.90
8888;DHT22;4480;52.370;9.748;2022-10-26T19:33:56;13.00;99.90
8888;DHT22;4480;52.370;9.748;2022-10-26T19:36:25;13.00;99.90
8888;DHT22;4480;52.370;9.748;2022-10-26T19:38:53;12.90;99.90
8888;DHT22;4480;52.370;9.748;2022-10-26T19:41:20;12.90;99.90
8888;DHT22;4480;52.370;9.748;2022-10-26T19:43:48;12.90;99.90
8888;DHT22;4480;52.370;9.748;2022-10-26T19:46:17;12.90;99.90
8888;DHT22;4480;52.370;9.748;2022-10-26T19:48:47;12.80;99.90
8888;DHT22;4480;52.370;9.748;2022-10-26T19:51:14;12.80;99.90
8888;DHT22;4480;52.370;9.748;2022-10-26T19:53:43;12.70;99.90
8888;DHT22;4480;52.370;9.748;2022-10-26T19:56:11;12.70;99.90
8888;DHT22;4480;52.370;9.748;2022-10-26T19:58:39;12.70;99.90
8888;DHT22;4480;52.370;9.748;2022-10-26T20:01:07;12.70;99.90
8888;DHT22;4480;52.370;9.748;2022-10-26T20:03:34;12.60;99.90
8888;DHT22;4480;52.370;9.748;2022-10-26T20:06:03;12.60;99.90
8888;DHT22;4480;52.370;9.748;2022-10-26T20:08:33;12.70;99.90
8888;DHT22;4480;52.370;9.748;2022-10-26T20:11:02;12.60;99.90
8888;DHT22;4480;52.370;9.748;2022-10-26T20:13:30;12.60;99.90
8888;DHT22;4480;52.370;9.748;2022-10-26T20:15:57;12.60;99.90
8888;DHT22;4480;52.370;9.748;2022-10-26T20:18:24;12.50;99.90
8888;DHT22;4480;52.370;9.748;2022-10-26T20:20:50;12.50;99.90
8888;DHT22;4480;52.370;9.748;2022-10-26T20:23:17;12.40;99.90
8888;DHT22;4480;52.370;9.748;2022-10-26T20:25:46;12.40;99.90
8888;DHT22;4480;52.370;9.748;2022-10-26T20:28:15;12.30;99.90
8888;DHT22;4480;52.370;9.748;2022-10-26T20:30:43;12.30;99.90
8888;DHT22;4480;52.370;9.748;2022-10-26T20:33:10;12.30;99.90
8888;DHT22;4480;52.370;9.748;2022-10-26T20:35:37;12.30;99.90
8888;DHT22;4480;52.370;9.748;2022-10-26T20:38:06;12.20;99.90
8888;DHT22;4480;52.370;9.748;2022-10-26T20:40:33;12.20;99.90
8888;DHT22;4480;52.370;9.748;2022-10-26T20:43:01;12.20;99.90
8888;DHT22;4480;52.370;9.748;2022-10-26T20:45:30;12.20;99.90
8888;DHT22;4480;52.370;9.748;2022-10-26T20:47:59;12.20;99.90
8888;DHT22;4480;52.370;9.748;2022-10-26T20:50:27;12.20;99.90
8888;DHT22;4480;52.370;9.748;2022-10-26T20:52:56;12.20;99.90
8888;DHT22;4480;52.370;9.748;2022-10-26T20:55:32;12.20;99.90
8888;DHT22;4480;52.370;9.748;2022-10-26T20:58:02;12.30;99.90
8888;DHT22;4480;52.370;9.748;2022-10-26T21:00:36;12.30;99.90
8888;DHT22;4480;52.370;9.748;2022-10-26T21:03:08;12.40;99.90
8888;DHT22;4480;52.370;9.748;2022-10-26T21:05:35;12.50;99.90
8888;DHT22;4480;52.370;9.748;2022-10-26T21:08:03;12.60;99.90
8888;DHT22;4480;52.370;9.748;2022-10-26T21:10:30;12.70;99.90
8888;DHT22;4480;52.370;9.748;2022-10-26T21:12:57;12.80;99.90
8888;DHT22;4480;52.370;9.748;2022-10-26T21:15:24;12.70;99.90
8888;DHT22;4480;52.370;9.748;2022-10-26T21:17:52;12.70;99.90
8888;DHT22;4480;52.370;9.748;2022-10-26T21:20:19;12.70;99.90
8888;DHT22;4480;52.370;9.748;2022-10-26T21:22:45;12.60;99.90
8888;DHT22;4480;52.370;9.748;2022-10-26T21:25:12;12.60;99.90
8888;DHT22;4480;52.370;9.748;2022-10-26T21:27:39;12.50;99.90
8888;DHT22;4480;52.370;9.748;2022-10-26T21:30:07;12.40;99.90
8888;DHT22;4480;52.370;9.748;2022-10-26T21:32:34;12.40;99.90
8888;DHT22;4480;52.370;9.748;2022-10-26T21:35:02;12.30;99.90
8888;DHT22;4480;52.370;9.748;2022-10-26T21:37:29;12.30;99.90
8888;DHT22;4480;52.370;9.748;2022-10-26T21:39:56;12.30;99.90
8888;DHT22;4480;52.370;9.748;2022-10-26T21:42:23;12.20;99.90
8888;DHT22;4480;52.370;9.748;2022-10-26T21:44:50;12.20;99.90
8888;DHT22;4480;52.370;9.748;2022-10-26T21:47:16;12.20;99.90
8888;DHT22;4480;52.370;9.748;2022-10-26T21:49:43;12.10;99.90
8888;DHT22;4480;52.370;9.748;2022-10-26T21:52:11;12.10;99.90
8888;DHT22;4480;52.370;9.748;2022-10-26T21:54:38;12.10;99.90
8888;DHT22;4480;52.370;9.748;2022-10-26T21:57:05;12.10;99.90
8888;DHT22;4480;52.370;9.748;2022-10-26T21:59:31;12.10;99.90
8888;DHT22;4480;52.370;9.748;2022-10-26T22:01:58;12.10;99.90
8888;DHT22;4480;52.370;9.748;2022-10-26T22:04:25;12.10;99.90
8888;DHT22;4480;52.370;9.748;2022-10-26T22:06:52;12.00;99.90
8888;DHT22;4480;52.370;9.748;2022-10-26T22:09:20;12.00;99.90
8888;DHT22;4480;52.370;9.748;2022-10-26T22:11:46;12.00;99.90
8888;DHT22;4480;52.370;9.748;2022-10-26T22:14:14;12.00;99.90
8888;DHT22;4480;52.370;9.748;2022-10-26T22:16:42;12.00;99.90
8888;DHT22;4480;52.370;9.748;2022-10-26T22:19:09;11.90;99.90
8888;DHT22;4480;52.370;9.748;2022-10-26T22:21:37;11.90;99.90
